createdAt,value
2023-05-03T00:02:21.801Z,89.60
2023-05-03T00:04:53.571Z,90.10
2023-05-03T00:07:22.946Z,90.70
2023-05-03T00:09:50.984Z,90.70
2023-05-03T00:12:18.875Z,91.30
2023-05-03T00:14:47.142Z,91.80
2023-05-03T00:17:16.651Z,91.20
2023-05-03T00:19:45.162Z,91.70
2023-05-03T00:22:12.997Z,91.90
2023-05-03T00:24:40.997Z,91.80
2023-05-03T00:27:08.834Z,92.10
2023-05-03T00:29:36.651Z,92.50
2023-05-03T00:32:04.636Z,92.90
2023-05-03T00:34:33.799Z,93.50
2023-05-03T00:37:01.606Z,93.00
2023-05-03T00:39:31.261Z,93.20
2023-05-03T00:41:59.757Z,93.30
2023-05-03T00:44:27.752Z,93.70
2023-05-03T00:46:56.866Z,93.30
2023-05-03T00:49:26.553Z,93.20
2023-05-03T00:51:56.175Z,93.40
2023-05-03T00:54:24.513Z,93.40
2023-05-03T00:56:52.752Z,93.20
2023-05-03T00:59:21.083Z,93.00
2023-05-03T01:01:50.883Z,92.30
2023-05-03T01:04:19.262Z,92.10
2023-05-03T01:06:56.737Z,92.10
2023-05-03T01:09:33.880Z,92.20
2023-05-03T01:12:09.768Z,92.90
2023-05-03T01:14:42.366Z,93.70
2023-05-03T01:17:13.409Z,94.30
2023-05-03T01:19:49.867Z,95.00
2023-05-03T01:22:23.442Z,94.80
2023-05-03T01:25:02.250Z,94.70
2023-05-03T01:27:30.059Z,96.90
2023-05-03T01:29:57.936Z,97.20
2023-05-03T01:32:33.052Z,96.60
2023-05-03T01:35:05.680Z,96.30
2023-05-03T01:37:34.388Z,96.30
2023-05-03T01:40:06.447Z,94.80
2023-05-03T01:42:37.111Z,94.40
2023-05-03T01:45:06.088Z,94.90
2023-05-03T01:47:34.000Z,94.60
2023-05-03T01:50:02.041Z,96.20
2023-05-03T01:52:30.288Z,94.90
2023-05-03T01:54:59.488Z,94.60
2023-05-03T01:57:28.676Z,93.80
2023-05-03T01:59:56.664Z,93.80
2023-05-03T02:02:24.469Z,94.20
2023-05-03T02:04:52.484Z,94.60
2023-05-03T02:07:20.373Z,95.20
2023-05-03T02:09:48.261Z,96.60
2023-05-03T02:12:16.069Z,98.70
2023-05-03T02:14:45.191Z,98.30
2023-05-03T02:17:13.319Z,98.30
2023-05-03T02:19:41.105Z,97.10
2023-05-03T02:22:08.908Z,96.30
2023-05-03T02:24:37.313Z,95.80
2023-05-03T02:27:05.332Z,95.50
2023-05-03T02:29:33.146Z,95.80
2023-05-03T02:32:05.238Z,95.80
2023-05-03T02:34:33.868Z,96.00
2023-05-03T02:37:01.713Z,95.50
2023-05-03T02:39:29.753Z,95.80
2023-05-03T02:41:57.560Z,96.20
2023-05-03T02:44:25.373Z,98.00
2023-05-03T02:46:54.665Z,98.70
2023-05-03T02:49:23.852Z,99.90
2023-05-03T02:51:52.965Z,99.90
2023-05-03T02:54:20.785Z,99.50
2023-05-03T02:56:48.622Z,99.60
2023-05-03T02:59:16.406Z,98.90
2023-05-03T03:01:44.377Z,98.10
2023-05-03T03:04:12.209Z,97.70
2023-05-03T03:06:41.566Z,97.10
2023-05-03T03:09:09.414Z,97.20
2023-05-03T03:11:37.358Z,97.70
2023-05-03T03:14:05.180Z,97.80
2023-05-03T03:16:33.105Z,98.20
2023-05-03T03:19:00.966Z,98.90
2023-05-03T03:21:29.706Z,98.70
2023-05-03T03:23:58.908Z,98.90
2023-05-03T03:26:26.722Z,99.90
2023-05-03T03:28:54.533Z,99.90
2023-05-03T03:31:23.262Z,99.90
2023-05-03T03:33:51.194Z,99.90
2023-05-03T03:36:19.121Z,99.90
2023-05-03T03:38:46.973Z,99.90
2023-05-03T03:41:16.126Z,99.90
2023-05-03T03:43:43.949Z,99.90
2023-05-03T03:46:11.959Z,99.90
2023-05-03T03:48:39.744Z,99.90
2023-05-03T03:51:07.585Z,99.90
2023-05-03T03:53:37.103Z,99.90
2023-05-03T03:56:05.199Z,99.90
2023-05-03T03:58:34.453Z,99.90
2023-05-03T04:01:02.292Z,99.90
2023-05-03T04:03:30.333Z,99.90
2023-05-03T04:05:58.204Z,99.90
2023-05-03T04:08:26.000Z,99.90
2023-05-03T04:10:53.808Z,99.90
2023-05-03T04:13:21.652Z,99.90
2023-05-03T04:15:50.751Z,99.90
2023-05-03T04:18:18.543Z,99.90
2023-05-03T04:20:46.413Z,99.90
2023-05-03T04:23:14.252Z,99.90
2023-05-03T04:25:48.795Z,99.90
2023-05-03T04:28:16.878Z,99.70
2023-05-03T04:30:45.133Z,99.40
2023-05-03T04:33:14.638Z,99.30
2023-05-03T04:35:42.592Z,99.20
2023-05-03T04:38:10.848Z,99.40
2023-05-03T04:40:38.662Z,99.40
2023-05-03T04:43:06.566Z,99.10
2023-05-03T04:45:34.370Z,98.60
2023-05-03T04:48:05.407Z,97.90
2023-05-03T04:50:34.939Z,97.20
2023-05-03T04:53:02.791Z,96.50
2023-05-03T04:55:30.681Z,95.80
2023-05-03T04:57:58.503Z,94.90
2023-05-03T05:00:26.333Z,93.90
2023-05-03T05:02:54.305Z,93.30
2023-05-03T05:05:22.246Z,92.80
2023-05-03T05:07:52.685Z,92.50
2023-05-03T05:10:20.487Z,92.10
2023-05-03T05:12:48.325Z,91.50
2023-05-03T05:15:16.191Z,90.70
2023-05-03T05:17:44.386Z,90.70
2023-05-03T05:20:13.416Z,90.50
2023-05-03T05:22:41.309Z,90.00
2023-05-03T05:25:11.020Z,89.80
2023-05-03T05:27:38.800Z,92.10
2023-05-03T05:30:08.073Z,91.80
2023-05-03T05:32:36.058Z,92.00
2023-05-03T05:35:04.436Z,91.50
2023-05-03T05:37:32.324Z,91.60
2023-05-03T05:40:00.210Z,91.30
2023-05-03T05:42:29.440Z,90.20
2023-05-03T05:44:57.370Z,90.50
2023-05-03T05:47:25.479Z,89.30
2023-05-03T05:49:53.386Z,89.30
2023-05-03T05:52:22.002Z,89.30
2023-05-03T05:54:49.765Z,89.10
2023-05-03T05:57:17.578Z,89.10
2023-05-03T05:59:46.750Z,88.30
2023-05-03T06:02:17.690Z,88.20
2023-05-03T06:04:46.794Z,88.90
2023-05-03T06:07:16.183Z,89.30
2023-05-03T06:09:44.073Z,89.80
2023-05-03T06:12:11.895Z,90.00
2023-05-03T06:14:44.021Z,89.90
2023-05-03T06:17:18.460Z,89.50
2023-05-03T06:19:48.821Z,89.70
2023-05-03T06:22:16.746Z,87.60
2023-05-03T06:24:44.600Z,87.60
2023-05-03T06:27:12.368Z,86.70
2023-05-03T06:29:40.456Z,87.20
2023-05-03T06:32:08.247Z,87.80
2023-05-03T06:34:37.491Z,86.80
2023-05-03T06:37:05.301Z,85.90
2023-05-03T06:39:33.140Z,85.50
2023-05-03T06:42:01.085Z,86.60
2023-05-03T06:44:28.954Z,85.50
2023-05-03T06:46:56.853Z,85.90
2023-05-03T06:49:24.684Z,84.30
2023-05-03T06:51:53.838Z,84.50
2023-05-03T06:54:21.663Z,82.90
2023-05-03T06:56:49.471Z,84.20
2023-05-03T06:59:17.588Z,84.70
2023-05-03T07:01:46.131Z,82.90
2023-05-03T07:04:14.158Z,82.00
2023-05-03T07:06:55.470Z,82.30
2023-05-03T07:09:35.446Z,81.60
2023-05-03T07:12:10.615Z,82.40
2023-05-03T07:14:39.071Z,82.20
2023-05-03T07:17:07.408Z,80.60
2023-05-03T07:19:35.307Z,78.90
2023-05-03T07:22:03.505Z,77.90
2023-05-03T07:24:32.709Z,82.30
2023-05-03T07:27:00.673Z,81.60
2023-05-03T07:29:28.559Z,79.20
2023-05-03T07:31:56.397Z,76.30
2023-05-03T07:34:24.245Z,78.30
2023-05-03T07:36:52.197Z,75.80
2023-05-03T07:39:20.120Z,75.90
2023-05-03T07:41:49.372Z,75.70
2023-05-03T07:44:17.156Z,75.30
2023-05-03T07:46:44.955Z,74.70
2023-05-03T07:49:12.786Z,73.20
2023-05-03T07:51:41.103Z,72.70
2023-05-03T07:54:09.017Z,75.20
2023-05-03T07:56:36.815Z,71.80
2023-05-03T07:59:09.928Z,72.70
2023-05-03T08:01:38.384Z,68.70
2023-05-03T08:04:06.827Z,68.60
2023-05-03T08:06:36.048Z,70.50
2023-05-03T08:09:04.557Z,71.10
2023-05-03T08:11:32.596Z,69.70
2023-05-03T08:14:00.389Z,75.00
2023-05-03T08:16:29.633Z,76.90
2023-05-03T08:18:57.606Z,75.00
2023-05-03T08:21:26.241Z,74.80
2023-05-03T08:23:54.659Z,74.30
2023-05-03T08:26:24.260Z,74.90
2023-05-03T08:28:52.133Z,76.40
2023-05-03T08:31:20.035Z,71.40
2023-05-03T08:33:49.214Z,72.10
2023-05-03T08:36:17.147Z,68.40
2023-05-03T08:38:45.130Z,69.70
2023-05-03T08:41:19.933Z,71.40
2023-05-03T08:43:53.368Z,71.80
2023-05-03T08:46:21.449Z,72.70
2023-05-03T08:48:52.666Z,69.90
2023-05-03T08:51:21.445Z,73.10
2023-05-03T08:53:50.031Z,71.90
2023-05-03T08:56:25.501Z,70.60
2023-05-03T08:58:53.363Z,71.50
2023-05-03T09:01:21.323Z,72.30
2023-05-03T09:03:53.543Z,73.40
2023-05-03T09:06:23.092Z,76.10
2023-05-03T09:08:51.189Z,75.40
2023-05-03T09:11:23.607Z,75.60
2023-05-03T09:13:52.953Z,76.30
2023-05-03T09:16:24.612Z,73.70
2023-05-03T09:19:01.029Z,72.60
2023-05-03T09:21:29.472Z,70.60
2023-05-03T09:23:57.306Z,69.40
2023-05-03T09:26:37.584Z,70.90
2023-05-03T09:29:06.021Z,72.90
2023-05-03T09:31:35.325Z,70.90
2023-05-03T09:34:22.589Z,69.20
2023-05-03T09:36:50.468Z,68.90
2023-05-03T09:39:19.810Z,66.20
2023-05-03T09:41:47.926Z,67.20
2023-05-03T09:44:15.766Z,67.20
2023-05-03T09:47:03.584Z,68.40
2023-05-03T09:49:33.824Z,67.10
2023-05-03T09:52:02.583Z,66.30
2023-05-03T09:54:31.908Z,67.50
2023-05-03T09:57:00.773Z,68.50
2023-05-03T09:59:28.863Z,70.60
2023-05-03T10:01:58.890Z,69.10
2023-05-03T10:04:28.966Z,67.20
2023-05-03T10:07:01.322Z,66.30
2023-05-03T10:09:33.466Z,65.20
2023-05-03T10:12:04.133Z,65.30
2023-05-03T10:14:32.460Z,65.90
2023-05-03T10:17:03.527Z,66.70
2023-05-03T10:19:36.657Z,67.20
2023-05-03T10:22:07.699Z,66.00
2023-05-03T10:24:36.411Z,64.90
2023-05-03T10:27:07.613Z,63.00
2023-05-03T10:29:52.354Z,62.70
2023-05-03T10:32:34.424Z,62.00
2023-05-03T10:35:05.639Z,61.70
2023-05-03T10:37:36.190Z,60.70
2023-05-03T10:40:09.718Z,60.60
2023-05-03T10:42:38.803Z,61.20
2023-05-03T10:45:12.586Z,62.10
2023-05-03T10:47:40.833Z,62.00
2023-05-03T10:50:28.213Z,62.40
2023-05-03T10:52:58.654Z,62.20
2023-05-03T10:55:26.753Z,62.10
2023-05-03T10:57:57.566Z,61.60
2023-05-03T11:00:32.138Z,63.20
2023-05-03T11:03:28.991Z,62.20
2023-05-03T11:05:57.445Z,63.00
2023-05-03T11:08:28.013Z,62.00
2023-05-03T11:11:00.408Z,61.50
2023-05-03T11:13:29.204Z,60.80
2023-05-03T11:15:57.577Z,60.60
2023-05-03T11:18:27.932Z,60.20
2023-05-03T11:20:55.914Z,60.90
2023-05-03T11:23:28.131Z,60.60
2023-05-03T11:25:57.492Z,57.60
2023-05-03T11:28:25.436Z,58.50
2023-05-03T11:30:53.315Z,57.10
2023-05-03T11:33:21.197Z,57.10
2023-05-03T11:35:48.988Z,56.30
2023-05-03T11:38:16.817Z,53.90
2023-05-03T11:40:46.015Z,54.20
2023-05-03T11:43:13.953Z,54.90
2023-05-03T11:45:44.054Z,56.20
2023-05-03T11:48:13.256Z,54.60
2023-05-03T11:50:48.359Z,55.80
2023-05-03T11:53:16.985Z,54.90
2023-05-03T11:55:48.011Z,53.50
2023-05-03T11:58:16.185Z,53.80
2023-05-03T12:00:45.704Z,53.70
2023-05-03T12:03:18.888Z,55.60
2023-05-03T12:05:48.373Z,53.80
2023-05-03T12:08:20.646Z,54.90
2023-05-03T12:10:54.389Z,56.50
2023-05-03T12:13:31.158Z,53.60
2023-05-03T12:16:11.785Z,54.10
2023-05-03T12:18:48.212Z,53.30
2023-05-03T12:23:50.340Z,52.50
2023-05-03T12:26:21.486Z,51.50
2023-05-03T12:28:50.386Z,52.70
2023-05-03T12:31:18.661Z,54.30
2023-05-03T12:34:00.118Z,53.20
2023-05-03T12:36:37.406Z,53.20
2023-05-03T12:39:09.262Z,53.30
2023-05-03T12:44:10.794Z,52.10
2023-05-03T12:46:39.673Z,51.20
2023-05-03T12:49:08.762Z,52.30
2023-05-03T12:51:40.772Z,46.60
2023-05-03T12:54:11.692Z,50.10
2023-05-03T12:56:41.627Z,51.40
2023-05-03T13:06:43.845Z,50.00
2023-05-03T13:09:18.986Z,48.60
2023-05-03T13:11:51.074Z,50.10
2023-05-03T13:14:19.001Z,50.40
2023-05-03T13:16:47.408Z,50.60
2023-05-03T13:19:15.562Z,47.70
2023-05-03T13:21:43.558Z,49.30
2023-05-03T13:24:11.373Z,46.20
2023-05-03T13:26:39.178Z,45.60
2023-05-03T13:29:09.441Z,43.70
2023-05-03T13:31:37.363Z,43.20
2023-05-03T13:34:06.801Z,41.50
2023-05-03T13:36:34.910Z,42.30
2023-05-03T13:39:02.854Z,42.60
2023-05-03T13:41:30.695Z,42.00
2023-05-03T13:43:58.490Z,42.50
2023-05-03T13:46:27.818Z,42.00
2023-05-03T13:48:56.433Z,41.70
2023-05-03T13:51:25.594Z,42.40
2023-05-03T13:53:53.381Z,40.30
2023-05-03T13:56:21.667Z,42.30
2023-05-03T13:58:49.472Z,42.60
2023-05-03T14:01:17.793Z,40.20
2023-05-03T14:03:47.164Z,41.00
2023-05-03T14:06:15.123Z,40.70
2023-05-03T14:08:42.934Z,40.60
2023-05-03T14:11:14.499Z,40.60
2023-05-03T14:13:55.544Z,41.10
2023-05-03T14:18:58.315Z,41.90
2023-05-03T14:21:26.401Z,42.10
2023-05-03T14:23:55.784Z,42.30
2023-05-03T14:26:26.097Z,41.40
2023-05-03T14:28:54.067Z,42.10
2023-05-03T14:31:22.018Z,40.60
2023-05-03T14:33:49.867Z,41.60
2023-05-03T14:36:19.036Z,40.30
2023-05-03T14:38:46.860Z,42.00
2023-05-03T14:41:14.632Z,41.60
2023-05-03T14:43:42.424Z,41.50
2023-05-03T14:46:10.433Z,42.30
2023-05-03T14:48:38.891Z,42.60
2023-05-03T14:51:07.226Z,41.90
2023-05-03T14:53:36.608Z,41.80
2023-05-03T14:56:04.794Z,41.80
2023-05-03T14:58:33.006Z,42.50
2023-05-03T15:01:01.138Z,42.10
2023-05-03T15:03:29.068Z,40.90
2023-05-03T15:05:57.025Z,41.50
2023-05-03T15:08:24.857Z,41.70
2023-05-03T15:10:53.996Z,41.80
2023-05-03T15:13:22.102Z,42.40
2023-05-03T15:15:50.080Z,42.70
2023-05-03T15:18:20.337Z,43.70
2023-05-03T15:20:48.229Z,42.90
2023-05-03T15:23:16.024Z,42.50
2023-05-03T15:25:43.803Z,39.80
2023-05-03T15:28:12.961Z,40.10
2023-05-03T15:30:40.781Z,40.10
2023-05-03T15:33:10.711Z,39.20
2023-05-03T15:35:40.033Z,40.40
2023-05-03T15:38:08.204Z,41.40
2023-05-03T15:40:36.037Z,41.70
2023-05-03T15:43:03.869Z,42.40
2023-05-03T15:45:33.449Z,42.30
2023-05-03T15:48:01.921Z,41.70
2023-05-03T15:50:30.846Z,42.70
2023-05-03T15:52:58.823Z,41.90
2023-05-03T15:55:26.907Z,40.60
2023-05-03T15:57:56.995Z,40.60
2023-05-03T16:00:25.991Z,39.70
2023-05-03T16:02:55.694Z,39.90
2023-05-03T16:05:23.738Z,40.00
2023-05-03T16:07:51.842Z,40.40
2023-05-03T16:10:21.700Z,41.40
2023-05-03T16:12:50.970Z,41.40
2023-05-03T16:15:18.912Z,41.30
2023-05-03T16:17:46.763Z,42.20
2023-05-03T16:20:16.104Z,42.60
2023-05-03T16:22:45.345Z,42.30
2023-05-03T16:25:14.060Z,42.20
2023-05-03T16:27:41.889Z,41.10
2023-05-03T16:30:10.780Z,41.50
2023-05-03T16:32:38.631Z,40.60
2023-05-03T16:35:06.959Z,41.00
2023-05-03T16:37:37.518Z,40.40
2023-05-03T16:40:10.436Z,41.30
2023-05-03T16:42:38.976Z,41.40
2023-05-03T16:45:08.579Z,42.00
2023-05-03T16:47:36.620Z,42.00
2023-05-03T16:50:06.558Z,43.00
2023-05-03T16:52:39.660Z,42.20
2023-05-03T16:55:09.033Z,42.70
2023-05-03T16:57:37.125Z,42.80
2023-05-03T17:00:08.904Z,42.60
2023-05-03T17:02:37.463Z,43.00
2023-05-03T17:05:06.107Z,43.10
2023-05-03T17:07:33.959Z,41.60
2023-05-03T17:10:03.898Z,41.40
2023-05-03T17:12:32.066Z,41.10
2023-05-03T17:15:00.565Z,41.30
2023-05-03T17:17:28.413Z,40.80
2023-05-03T17:19:56.382Z,41.60
2023-05-03T17:22:24.231Z,42.90
2023-05-03T17:24:54.608Z,42.60
2023-05-03T17:27:24.311Z,43.00
2023-05-03T17:29:52.200Z,42.90
2023-05-03T17:32:20.025Z,42.80
2023-05-03T17:34:47.838Z,42.60
2023-05-03T17:37:15.669Z,42.30
2023-05-03T17:39:43.507Z,42.70
2023-05-03T17:42:11.285Z,43.30
2023-05-03T17:44:40.892Z,42.90
2023-05-03T17:47:09.340Z,43.10
2023-05-03T17:49:37.687Z,43.30
2023-05-03T17:52:06.492Z,43.60
2023-05-03T17:54:35.068Z,43.60
2023-05-03T17:57:03.345Z,44.20
2023-05-03T17:59:31.195Z,44.40
2023-05-03T18:02:00.645Z,44.20
2023-05-03T18:04:28.664Z,44.30
2023-05-03T18:06:56.461Z,44.70
2023-05-03T18:09:26.622Z,45.20
2023-05-03T18:11:56.311Z,45.80
2023-05-03T18:14:24.147Z,46.30
2023-05-03T18:16:55.127Z,47.60
2023-05-03T18:19:24.842Z,46.90
2023-05-03T18:21:52.692Z,47.60
2023-05-03T18:24:20.528Z,48.10
2023-05-03T18:26:48.387Z,48.10
2023-05-03T18:29:16.225Z,48.30
2023-05-03T18:31:44.279Z,48.60
2023-05-03T18:34:12.183Z,48.80
2023-05-03T18:36:41.424Z,49.30
2023-05-03T18:39:09.655Z,49.30
2023-05-03T18:41:37.517Z,49.50
2023-05-03T18:44:05.592Z,50.10
2023-05-03T18:46:33.394Z,50.50
2023-05-03T18:49:03.361Z,51.00
2023-05-03T18:51:32.453Z,51.10
2023-05-03T18:54:01.733Z,51.20
2023-05-03T18:56:31.283Z,51.60
2023-05-03T18:58:59.178Z,52.10
2023-05-03T19:01:27.394Z,53.20
2023-05-03T19:03:55.402Z,53.30
2023-05-03T19:06:23.337Z,53.60
2023-05-03T19:08:51.162Z,54.60
2023-05-03T19:11:20.296Z,55.40
2023-05-03T19:13:48.109Z,55.80
2023-05-03T19:16:16.574Z,56.80
2023-05-03T19:18:45.347Z,57.40
2023-05-03T19:21:16.948Z,58.50
2023-05-03T19:23:44.839Z,59.40
2023-05-03T19:26:12.724Z,60.00
2023-05-03T19:28:42.023Z,60.60
2023-05-03T19:31:09.985Z,61.30
2023-05-03T19:33:38.075Z,61.80
2023-05-03T19:36:07.195Z,61.90
2023-05-03T19:38:36.110Z,62.40
2023-05-03T19:41:08.216Z,62.50
2023-05-03T19:43:36.107Z,63.30
2023-05-03T19:46:05.493Z,63.50
2023-05-03T19:48:33.682Z,64.10
2023-05-03T19:51:02.453Z,64.10
2023-05-03T19:53:31.377Z,64.30
2023-05-03T19:56:00.564Z,64.40
2023-05-03T19:58:28.812Z,64.30
2023-05-03T20:00:59.023Z,65.00
2023-05-03T20:03:28.544Z,64.90
2023-05-03T20:05:56.503Z,65.30
2023-05-03T20:08:25.048Z,66.00
2023-05-03T20:10:55.249Z,66.00
2023-05-03T20:13:25.776Z,66.60
2023-05-03T20:15:53.824Z,67.10
2023-05-03T20:18:21.925Z,68.20
2023-05-03T20:20:51.085Z,68.00
2023-05-03T20:23:18.939Z,68.80
2023-05-03T20:25:46.769Z,69.10
2023-05-03T20:28:14.579Z,69.60
2023-05-03T20:30:42.405Z,69.70
2023-05-03T20:33:10.895Z,70.10
2023-05-03T20:35:39.016Z,70.30
2023-05-03T20:38:08.310Z,70.70
2023-05-03T20:40:36.305Z,71.60
2023-05-03T20:43:04.292Z,71.10
2023-05-03T20:45:32.854Z,71.50
2023-05-03T20:48:00.783Z,71.60
2023-05-03T20:50:28.635Z,72.50
2023-05-03T20:52:56.704Z,72.50
2023-05-03T20:55:25.899Z,73.10
2023-05-03T20:57:53.719Z,72.60
2023-05-03T21:00:22.273Z,72.60
2023-05-03T21:02:53.716Z,72.90
2023-05-03T21:05:22.429Z,73.00
2023-05-03T21:07:50.601Z,73.70
2023-05-03T21:10:18.462Z,73.90
2023-05-03T21:12:47.749Z,74.10
2023-05-03T21:15:15.835Z,74.50
2023-05-03T21:17:43.754Z,73.60
2023-05-03T21:20:12.472Z,73.40
2023-05-03T21:22:40.284Z,74.00
2023-05-03T21:25:09.281Z,72.60
2023-05-03T21:27:37.134Z,72.20
2023-05-03T21:30:08.093Z,73.30
2023-05-03T21:32:36.019Z,73.90
2023-05-03T21:35:03.856Z,73.30
2023-05-03T21:37:31.935Z,70.50
2023-05-03T21:40:02.492Z,70.40
2023-05-03T21:42:30.792Z,72.60
2023-05-03T21:44:59.022Z,73.60
2023-05-03T21:47:28.490Z,72.20
2023-05-03T21:49:56.314Z,71.30
2023-05-03T21:52:24.179Z,70.50
2023-05-03T21:54:53.593Z,68.90
2023-05-03T21:57:21.401Z,69.90
2023-05-03T21:59:50.134Z,70.00
2023-05-03T22:02:18.166Z,68.50
2023-05-03T22:04:47.336Z,68.30
2023-05-03T22:07:15.466Z,68.20
2023-05-03T22:09:46.261Z,68.20
2023-05-03T22:12:23.372Z,67.00
2023-05-03T22:14:51.693Z,69.50
2023-05-03T22:17:19.759Z,70.20
2023-05-03T22:19:49.075Z,72.20
2023-05-03T22:22:16.926Z,73.00
2023-05-03T22:24:44.778Z,73.70
2023-05-03T22:27:12.968Z,74.00
2023-05-03T22:29:40.760Z,73.40
2023-05-03T22:32:08.794Z,74.60
2023-05-03T22:34:36.665Z,74.00
2023-05-03T22:37:08.566Z,74.20
2023-05-03T22:39:36.526Z,71.90
2023-05-03T22:42:04.836Z,70.80
2023-05-03T22:44:33.416Z,73.00
2023-05-03T22:47:01.581Z,73.70
2023-05-03T22:49:29.417Z,74.50
2023-05-03T22:51:57.234Z,74.90
2023-05-03T22:54:26.978Z,75.40
2023-05-03T22:56:55.199Z,77.80
2023-05-03T22:59:23.040Z,77.60
2023-05-03T23:01:50.870Z,76.70
2023-05-03T23:04:18.804Z,74.60
2023-05-03T23:06:46.631Z,75.40
2023-05-03T23:09:14.456Z,75.90
2023-05-03T23:11:43.681Z,77.10
2023-05-03T23:14:11.502Z,75.30
2023-05-03T23:16:39.695Z,76.00
2023-05-03T23:19:08.272Z,74.80
2023-05-03T23:21:36.224Z,76.30
2023-05-03T23:24:04.076Z,77.40
2023-05-03T23:26:31.885Z,77.50
2023-05-03T23:29:01.583Z,79.10
2023-05-03T23:31:35.365Z,78.10
2023-05-03T23:34:05.366Z,77.30
2023-05-03T23:36:34.070Z,76.80
2023-05-03T23:39:01.948Z,76.50
2023-05-03T23:41:29.793Z,77.20
2023-05-03T23:43:57.607Z,76.50
2023-05-03T23:46:26.774Z,77.10
2023-05-03T23:48:54.889Z,73.70
2023-05-03T23:51:22.750Z,76.20
2023-05-03T23:53:50.609Z,75.30
2023-05-03T23:56:18.506Z,75.00
2023-05-03T23:58:46.309Z,74.00
